Time;durP1;ratioP1;P1;durP2;ratioP2;P2;SDS_P1;SDS_P2;PMS_P1;PMS_P2;Temp;Humidity;BMP_temperature;BMP_pressure;BME280_temperature;BME280_humidity;BME280_pressure;Samples;Min_cycle;Max_cycle;Signal;HPM_P1;HPM_P2
2023/03/01 00:01:30;;;;;;;17.07;12.17;;;;;;;-2.76;100.00;97216.00;5073411;28;20448;-75
2023/03/01 00:03:58;;;;;;;17.80;13.20;;;;;;;-3.05;100.00;97171.03;5070399;28;20417;-75
2023/03/01 00:06:25;;;;;;;21.77;11.50;;;;;;;-2.91;100.00;97194.13;5067143;28;20436;-76
2023/03/01 00:08:52;;;;;;;21.70;13.07;;;;;;;-2.84;100.00;97202.59;5074831;28;20455;-76
2023/03/01 00:11:22;;;;;;;17.33;12.60;;;;;;;-3.09;100.00;97166.47;5073263;28;20535;-76
2023/03/01 00:13:52;;;;;;;13.10;9.60;;;;;;;-2.75;100.00;97209.03;5056706;28;20950;-76
2023/03/01 00:16:22;;;;;;;18.23;12.93;;;;;;;-2.69;100.00;97208.16;5073162;28;20920;-75
2023/03/01 00:18:49;;;;;;;18.73;12.20;;;;;;;-2.88;100.00;97202.25;5073111;28;20463;-75
2023/03/01 00:21:16;;;;;;;17.90;12.70;;;;;;;-3.13;100.00;97165.34;5072953;28;20488;-75
2023/03/01 00:23:43;;;;;;;13.57;10.90;;;;;;;-3.10;100.00;97162.31;5073150;28;20537;-76
2023/03/01 00:26:12;;;;;;;16.03;13.17;;;;;;;-3.00;100.00;97178.13;5056463;28;20439;-76
2023/03/01 00:28:40;;;;;;;15.77;12.23;;;;;;;-3.13;100.00;97163.56;5073012;28;20498;-75
2023/03/01 00:31:12;;;;;;;19.67;12.57;;;;;;;-3.14;100.00;97171.53;5072822;28;20497;-75
2023/03/01 00:33:39;;;;;;;19.00;13.03;;;;;;;-2.91;100.00;97201.91;5064016;28;20436;-76
2023/03/01 00:36:06;;;;;;;15.80;13.10;;;;;;;-2.92;100.00;97177.03;5073217;28;20538;-75
2023/03/01 00:38:44;;;;;;;17.27;13.17;;;;;;;-3.01;100.00;97169.56;5056265;28;20551;-75
2023/03/01 00:41:14;;;;;;;20.00;12.63;;;;;;;-2.93;100.00;97172.88;5069630;28;21019;-76
2023/03/01 00:43:41;;;;;;;18.43;13.83;;;;;;;-3.48;100.00;97087.63;5072909;28;20528;-76
2023/03/01 00:46:13;;;;;;;19.90;12.23;;;;;;;-2.84;100.00;97200.00;5073911;28;20420;-75
2023/03/01 00:48:41;;;;;;;22.40;12.50;;;;;;;-2.81;100.00;97191.78;5084686;28;20430;-75
2023/03/01 00:51:22;;;;;;;17.87;13.00;;;;;;;-2.83;100.00;97196.41;5078918;28;20477;-76
2023/03/01 00:53:53;;;;;;;19.33;13.07;;;;;;;-3.01;100.00;97164.41;5079945;28;20479;-75
2023/03/01 00:56:21;;;;;;;22.47;12.77;;;;;;;-2.94;100.00;97163.50;5076333;28;20478;-75
2023/03/01 00:58:47;;;;;;;18.73;13.07;;;;;;;-3.01;100.00;97156.63;5059108;28;20559;-75
2023/03/01 01:01:17;;;;;;;17.53;11.77;;;;;;;-2.84;100.00;97185.25;5072462;28;20495;-75
2023/03/01 01:03:45;;;;;;;20.03;15.40;;;;;;;-2.80;100.00;97177.88;5072581;28;20459;-75
2023/03/01 01:06:21;;;;;;;18.57;12.90;;;;;;;-2.94;100.00;97173.84;5055734;28;20468;-75
2023/03/01 01:08:49;;;;;;;16.23;12.33;;;;;;;-2.99;100.00;97161.59;5058069;28;20436;-75
2023/03/01 01:11:16;;;;;;;18.57;11.57;;;;;;;-3.00;100.00;97170.34;5079558;28;20495;-75
2023/03/01 01:13:45;;;;;;;17.77;13.13;;;;;;;-2.97;100.00;97160.34;5069859;28;20428;-75
2023/03/01 01:16:13;;;;;;;20.10;11.47;;;;;;;-3.06;100.00;97150.56;5072021;28;20550;-75
2023/03/01 01:18:40;;;;;;;17.33;12.70;;;;;;;-3.21;100.00;97124.28;5071979;28;20540;-75
2023/03/01 01:21:10;;;;;;;22.50;12.23;;;;;;;-3.16;100.00;97132.97;5061729;28;20457;-75
2023/03/01 01:23:38;;;;;;;18.40;15.27;;;;;;;-3.07;100.00;97151.53;5082700;28;20956;-75
2023/03/01 01:26:18;;;;;;;16.17;11.30;;;;;;;-3.09;100.00;97145.78;5072217;28;20439;-75
2023/03/01 01:28:46;;;;;;;15.70;11.57;;;;;;;-3.19;100.00;97125.66;5071887;28;20436;-75
2023/03/01 01:31:13;;;;;;;16.67;12.10;;;;;;;-3.11;100.00;97129.72;5071880;28;20448;-75
2023/03/01 01:33:40;;;;;;;21.93;13.77;;;;;;;-3.25;100.00;97120.53;5071622;28;20476;-75
2023/03/01 01:36:08;;;;;;;19.13;14.20;;;;;;;-3.17;100.00;97131.38;5058576;28;20495;-75
2023/03/01 01:38:36;;;;;;;15.10;12.47;;;;;;;-3.15;100.00;97137.13;5071577;28;21010;-75
2023/03/01 01:41:04;;;;;;;16.10;12.40;;;;;;;-3.27;100.00;97120.78;5052272;28;20456;-75
2023/03/01 01:43:37;;;;;;;17.10;12.13;;;;;;;-3.16;100.00;97127.00;5071448;28;20530;-75
2023/03/01 01:46:17;;;;;;;17.20;11.73;;;;;;;-3.39;100.00;97100.03;5051759;28;20525;-75
2023/03/01 01:48:48;;;;;;;19.40;13.43;;;;;;;-3.34;100.00;97115.69;5064066;28;20438;-75
2023/03/01 01:51:27;;;;;;;17.73;12.13;;;;;;;-3.49;100.00;97107.50;5071277;28;20486;-75
2023/03/01 01:54:00;;;;;;;18.80;13.33;;;;;;;-3.37;100.00;97126.44;5078144;28;20416;-75
2023/03/01 01:56:29;;;;;;;16.23;13.60;;;;;;;-3.37;100.00;97131.63;5064728;28;20433;-75
2023/03/01 01:58:57;;;;;;;17.10;13.10;;;;;;;-3.76;100.00;97055.34;5062845;28;20470;-75
2023/03/01 02:01:24;;;;;;;17.23;12.30;;;;;;;-3.16;100.00;97122.63;5052862;28;20496;-75
2023/03/01 02:03:51;;;;;;;19.03;14.00;;;;;;;-3.58;100.00;97054.56;5063040;28;20458;-75
2023/03/01 02:06:29;;;;;;;17.57;12.60;;;;;;;-3.32;100.00;97128.41;5077996;28;20480;-75
2023/03/01 02:09:04;;;;;;;17.90;13.53;;;;;;;-3.43;100.00;97121.38;5077726;28;20474;-75
2023/03/01 02:11:32;;;;;;;19.83;13.10;;;;;;;-3.51;100.00;97082.88;5072368;28;20978;-75
2023/03/01 02:13:59;;;;;;;16.87;12.67;;;;;;;-3.44;100.00;97099.91;5054398;28;20436;-75
2023/03/01 02:16:26;;;;;;;16.97;13.70;;;;;;;-3.68;100.00;97064.63;5062588;28;20441;-75
2023/03/01 02:18:54;;;;;;;17.33;13.60;;;;;;;-3.40;100.00;97105.44;5066058;28;20821;-75
2023/03/01 02:21:52;;;;;;;20.70;13.17;;;;;;;-3.46;100.00;97098.56;5071797;28;20448;-75
2023/03/01 02:24:28;;;;;;;22.13;14.13;;;;;;;-3.45;100.00;97095.75;5057597;28;20433;-75
2023/03/01 02:26:56;;;;;;;19.97;13.50;;;;;;;-3.49;100.00;97094.59;5073596;28;20435;-75
2023/03/01 02:29:24;;;;;;;18.00;12.60;;;;;;;-3.61;100.00;97053.19;5082454;28;20432;-74
2023/03/01 02:31:56;;;;;;;23.63;13.50;;;;;;;-3.44;100.00;97079.22;5074150;28;20536;-75
2023/03/01 02:34:26;;;;;;;18.03;12.10;;;;;;;-3.63;100.00;97039.69;5054366;28;20448;-75
2023/03/01 02:37:02;;;;;;;20.20;13.10;;;;;;;-3.61;100.00;97039.47;5070874;28;20952;-75
2023/03/01 02:39:37;;;;;;;18.40;13.70;;;;;;;-3.58;100.00;97047.59;5050599;28;20515;-75
2023/03/01 02:42:04;;;;;;;23.03;13.50;;;;;;;-3.59;100.00;97076.25;5091967;28;20855;-75
2023/03/01 02:44:31;;;;;;;18.27;13.00;;;;;;;-3.70;100.00;97038.22;5077521;28;20447;-75
2023/03/01 02:47:02;;;;;;;16.50;12.90;;;;;;;-3.47;100.00;97081.44;5054113;28;21062;-75
2023/03/01 02:49:32;;;;;;;20.13;12.83;;;;;;;-3.55;100.00;97074.78;5072809;28;20429;-75
2023/03/01 02:52:07;;;;;;;20.33;12.47;;;;;;;-3.88;100.00;97075.94;5053814;28;20559;-74
2023/03/01 02:54:44;;;;;;;17.27;14.43;;;;;;;-3.84;100.00;97060.03;5071812;28;21310;-75
2023/03/01 02:57:12;;;;;;;18.20;14.27;;;;;;;-4.10;100.00;97014.66;5059886;28;20462;-74
2023/03/01 02:59:39;;;;;;;22.93;14.97;;;;;;;-3.72;100.00;97037.66;5068170;28;20468;-74
2023/03/01 03:02:20;;;;;;;22.03;12.83;;;;;;;-3.60;100.00;97064.34;5050628;28;20556;-74
2023/03/01 03:04:47;;;;;;;20.00;15.00;;;;;;;-4.00;100.00;97009.78;5071618;28;20473;-74
2023/03/01 03:07:14;;;;;;;19.47;13.23;;;;;;;-3.70;100.00;97051.91;5070364;28;20440;-74
2023/03/01 03:09:40;;;;;;;19.00;14.03;;;;;;;-3.93;100.00;97008.69;5070305;28;20440;-74
2023/03/01 03:12:07;;;;;;;21.80;13.30;;;;;;;-3.86;100.00;97021.53;5070263;28;20480;-74
2023/03/01 03:14:34;;;;;;;19.67;14.23;;;;;;;-3.88;100.00;97011.38;5070275;28;20441;-74
2023/03/01 03:17:06;;;;;;;18.33;13.70;;;;;;;-3.70;100.00;97030.47;5083685;28;20440;-74
2023/03/01 03:19:32;;;;;;;19.63;13.90;;;;;;;-3.77;100.00;97025.38;5070148;28;20464;-74
2023/03/01 03:21:59;;;;;;;23.23;15.40;;;;;;;-3.67;100.00;97030.03;5054558;28;20452;-75
2023/03/01 03:24:27;;;;;;;16.73;13.23;;;;;;;-3.44;100.00;97052.59;5082645;28;20527;-74
2023/03/01 03:26:53;;;;;;;18.77;13.00;;;;;;;-3.58;100.00;97036.47;5053588;28;20450;-75
2023/03/01 03:29:20;;;;;;;17.23;13.40;;;;;;;-3.47;100.00;97050.44;5071659;28;20439;-75
2023/03/01 03:31:47;;;;;;;19.87;14.27;;;;;;;-3.64;100.00;97038.13;5073873;28;20790;-74
2023/03/01 03:34:17;;;;;;;16.57;14.03;;;;;;;-3.63;100.00;97036.31;5057576;28;20452;-75
2023/03/01 03:36:44;;;;;;;20.40;14.07;;;;;;;-3.63;100.00;97039.69;5057551;28;20431;-75
2023/03/01 03:39:11;;;;;;;23.77;14.00;;;;;;;-3.78;100.00;97010.88;5065365;28;20468;-74
2023/03/01 03:41:37;;;;;;;24.70;14.30;;;;;;;-3.58;100.00;97044.22;5085027;28;20536;-74
2023/03/01 03:44:04;;;;;;;20.33;14.23;;;;;;;-3.79;100.00;97006.72;5074079;28;20439;-74
2023/03/01 03:46:31;;;;;;;20.47;13.87;;;;;;;-3.75;100.00;97025.94;5060583;28;20787;-74
2023/03/01 03:48:58;;;;;;;21.57;14.57;;;;;;;-3.70;100.00;97033.06;5076371;28;20782;-74
2023/03/01 03:51:25;;;;;;;19.23;14.70;;;;;;;-3.59;100.00;97040.06;5057064;28;21049;-74
2023/03/01 03:53:52;;;;;;;22.50;14.67;;;;;;;-3.89;100.00;97004.66;5075013;28;20424;-74
2023/03/01 03:56:18;;;;;;;18.57;13.77;;;;;;;-4.22;100.00;96950.03;5057072;28;20432;-74
2023/03/01 03:58:45;;;;;;;24.23;14.73;;;;;;;-3.93;100.00;96998.34;5063306;28;20510;-74
2023/03/01 04:01:12;;;;;;;18.10;13.70;;;;;;;-3.96;100.00;96998.00;5070766;28;20451;-74
2023/03/01 04:03:38;;;;;;;17.90;14.00;;;;;;;-3.75;100.00;97025.94;5073507;28;20439;-74
2023/03/01 04:06:05;;;;;;;19.20;12.97;;;;;;;-3.80;100.00;97015.47;5073409;28;20948;-75
2023/03/01 04:08:32;;;;;;;19.07;13.07;;;;;;;-3.88;100.00;97006.22;5057118;28;20477;-74
2023/03/01 04:11:25;;;;;;;18.83;15.80;;;;;;;-3.87;100.00;97007.03;5074626;28;20454;-74
2023/03/01 04:13:53;;;;;;;23.97;13.90;;;;;;;-3.73;100.00;97038.66;5088153;28;20508;-74
2023/03/01 04:16:19;;;;;;;19.47;13.00;;;;;;;-4.18;100.00;96954.53;5086317;28;20460;-74
2023/03/01 04:18:46;;;;;;;16.50;13.00;;;;;;;-3.98;100.00;97016.28;5074948;28;20468;-74
2023/03/01 04:21:13;;;;;;;20.70;13.30;;;;;;;-3.85;100.00;97042.97;5085828;28;20440;-74
2023/03/01 04:23:40;;;;;;;23.57;14.37;;;;;;;-4.14;100.00;96995.41;5073128;28;20868;-74
2023/03/01 04:26:09;;;;;;;18.43;13.90;;;;;;;-3.76;100.00;97031.31;5074453;28;20425;-74
2023/03/01 04:28:40;;;;;;;25.40;12.80;;;;;;;-3.73;100.00;97039.44;5073007;28;20440;-74
2023/03/01 04:31:18;;;;;;;16.73;12.90;;;;;;;-4.04;100.00;96986.16;5072998;28;20972;-74
2023/03/01 04:33:47;;;;;;;18.53;15.00;;;;;;;-3.95;100.00;97009.91;5072793;28;20512;-74
2023/03/01 04:36:16;;;;;;;19.70;14.40;;;;;;;-3.63;100.00;97047.44;5074344;28;20452;-74
2023/03/01 04:38:47;;;;;;;16.13;13.43;;;;;;;-3.83;100.00;97028.84;5072842;28;20471;-74
2023/03/01 04:41:16;;;;;;;17.03;13.23;;;;;;;-3.80;100.00;97038.72;5072742;28;20474;-74
2023/03/01 04:43:42;;;;;;;19.77;13.90;;;;;;;-3.94;100.00;97022.59;5065291;28;20885;-74
2023/03/01 04:46:14;;;;;;;18.77;13.43;;;;;;;-3.83;100.00;97044.34;5066061;28;20464;-74
2023/03/01 04:48:42;;;;;;;20.53;13.90;;;;;;;-3.76;100.00;97042.44;5057825;28;20468;-74
2023/03/01 04:51:13;;;;;;;18.40;16.30;;;;;;;-3.89;100.00;97017.56;5083532;28;20444;-74
2023/03/01 04:53:40;;;;;;;18.60;13.43;;;;;;;-3.79;100.00;97042.09;5072881;28;20523;-74
2023/03/01 04:56:07;;;;;;;16.57;12.93;;;;;;;-3.95;100.00;97025.41;5059347;28;20941;-74
2023/03/01 04:58:34;;;;;;;20.83;14.37;;;;;;;-4.13;100.00;97017.66;5073925;28;20775;-74
2023/03/01 05:01:01;;;;;;;21.33;14.87;;;;;;;-4.06;100.00;97010.63;5072327;28;20448;-74
2023/03/01 05:03:28;;;;;;;20.77;14.97;;;;;;;-4.10;100.00;96999.94;5072684;28;20924;-74
2023/03/01 05:05:59;;;;;;;21.57;14.07;;;;;;;-4.12;100.00;96989.06;5072385;28;20534;-74
2023/03/01 05:08:26;;;;;;;21.07;14.20;;;;;;;-4.05;100.00;97025.09;5073714;28;20546;-74
2023/03/01 05:10:54;;;;;;;23.80;14.23;;;;;;;-3.92;100.00;97025.75;5055926;28;20798;-74
2023/03/01 05:13:21;;;;;;;25.17;13.10;;;;;;;-4.23;100.00;96976.88;5055779;28;20464;-74
2023/03/01 05:16:01;;;;;;;18.27;12.70;;;;;;;-3.68;100.00;97031.03;5052137;28;20433;-74
2023/03/01 05:18:31;;;;;;;21.23;14.07;;;;;;;-3.91;100.00;97004.06;5060079;28;20433;-74
2023/03/01 05:21:15;;;;;;;22.20;14.73;;;;;;;-3.96;100.00;97022.03;5084783;28;20488;-74
2023/03/01 05:23:42;;;;;;;22.67;14.30;;;;;;;-4.05;100.00;97002.66;5072018;28;20487;-74
2023/03/01 05:26:09;;;;;;;16.87;12.93;;;;;;;-3.91;100.00;97016.19;5072269;28;21003;-74
2023/03/01 05:28:56;;;;;;;20.80;14.00;;;;;;;-3.82;100.00;97020.06;5071918;28;20482;-74
2023/03/01 05:31:23;;;;;;;16.80;12.97;;;;;;;-3.88;100.00;97026.88;5051876;28;20904;-74
2023/03/01 05:33:49;;;;;;;20.33;14.40;;;;;;;-3.95;100.00;96991.81;5071033;28;20433;-74
2023/03/01 05:36:18;;;;;;;20.20;13.10;;;;;;;-3.88;100.00;97010.59;5073186;28;20405;-74
2023/03/01 05:38:44;;;;;;;18.67;12.87;;;;;;;-4.10;100.00;96997.38;5071783;28;20432;-74
2023/03/01 05:41:16;;;;;;;24.67;14.43;;;;;;;-4.03;100.00;96999.84;5071545;28;20456;-74
2023/03/01 05:43:44;;;;;;;20.77;15.17;;;;;;;-4.06;100.00;97002.88;5081790;28;20429;-74
2023/03/01 05:46:13;;;;;;;19.30;13.77;;;;;;;-3.79;100.00;97037.72;5048632;28;20432;-74
2023/03/01 05:48:40;;;;;;;18.90;13.67;;;;;;;-3.94;100.00;97014.84;5063785;28;20440;-74
2023/03/01 05:51:06;;;;;;;17.10;12.67;;;;;;;-4.03;100.00;97003.22;5072631;28;20445;-74
2023/03/01 05:53:33;;;;;;;20.53;14.77;;;;;;;-3.90;100.00;97018.56;5071075;28;20432;-75
2023/03/01 05:56:03;;;;;;;21.23;14.67;;;;;;;-4.07;100.00;96998.72;5074881;28;20437;-74
2023/03/01 05:58:29;;;;;;;26.17;16.90;;;;;;;-3.95;100.00;97012.47;5071208;28;20482;-74
2023/03/01 06:00:56;;;;;;;20.00;14.57;;;;;;;-3.85;100.00;97028.25;5070958;28;20996;-74
2023/03/01 06:03:23;;;;;;;22.53;15.23;;;;;;;-3.99;100.00;97003.59;5054650;28;20439;-74
2023/03/01 06:05:49;;;;;;;20.47;13.50;;;;;;;-4.03;100.00;96998.06;5071199;28;20466;-74
2023/03/01 06:08:16;;;;;;;21.20;13.37;;;;;;;-3.94;100.00;97016.63;5071053;28;20944;-74
2023/03/01 06:10:43;;;;;;;18.33;13.37;;;;;;;-3.96;100.00;96992.84;5070959;28;20478;-74
2023/03/01 06:13:09;;;;;;;20.73;14.67;;;;;;;-3.83;100.00;97017.72;5072231;28;20535;-74
2023/03/01 06:15:36;;;;;;;18.10;13.50;;;;;;;-3.79;100.00;97019.63;5072721;28;20882;-75
2023/03/01 06:18:03;;;;;;;24.43;15.43;;;;;;;-3.87;100.00;97017.38;5092533;28;20808;-74
2023/03/01 06:20:30;;;;;;;22.57;15.23;;;;;;;-4.05;100.00;96992.34;5075550;28;20468;-75
2023/03/01 06:22:57;;;;;;;22.73;15.53;;;;;;;-3.77;100.00;97019.41;5080986;28;20433;-75
2023/03/01 06:25:26;;;;;;;23.17;14.33;;;;;;;-3.76;100.00;97023.56;5092298;28;20434;-75
2023/03/01 06:27:53;;;;;;;22.53;14.27;;;;;;;-3.81;100.00;97005.38;5081617;28;20443;-74
2023/03/01 06:30:21;;;;;;;20.03;14.43;;;;;;;-3.76;100.00;97019.19;5070690;28;20434;-74
2023/03/01 06:32:49;;;;;;;24.60;15.50;;;;;;;-3.80;100.00;97014.69;5061459;28;20898;-74
2023/03/01 06:35:17;;;;;;;21.83;15.43;;;;;;;-3.81;100.00;97000.19;5067124;28;20523;-74
2023/03/01 06:37:46;;;;;;;24.00;14.40;;;;;;;-3.68;100.00;97013.72;5050776;28;20514;-74
2023/03/01 06:40:13;;;;;;;22.30;15.53;;;;;;;-3.80;100.00;96989.66;5072879;28;20459;-75
2023/03/01 06:42:42;;;;;;;20.07;15.53;;;;;;;-3.60;100.00;97016.03;5078351;28;21004;-74
2023/03/01 06:45:10;;;;;;;27.50;17.67;;;;;;;-3.77;100.00;96988.41;5070758;28;20456;-74
2023/03/01 06:47:37;;;;;;;20.60;15.27;;;;;;;-3.60;100.00;97017.81;5071497;28;20438;-74
2023/03/01 06:50:04;;;;;;;22.70;15.33;;;;;;;-3.76;100.00;96984.81;5060746;28;20518;-74
2023/03/01 06:52:31;;;;;;;32.23;19.10;;;;;;;-3.50;100.00;97012.09;5078504;28;21056;-75
2023/03/01 06:54:58;;;;;;;21.83;14.30;;;;;;;-3.64;100.00;96983.06;5064956;28;20486;-75
2023/03/01 06:57:25;;;;;;;18.60;13.93;;;;;;;-3.39;100.00;97019.91;5063277;28;20480;-75
2023/03/01 06:59:52;;;;;;;19.87;14.83;;;;;;;-3.54;100.00;96990.31;5071682;28;20964;-75
2023/03/01 07:02:19;;;;;;;27.40;16.70;;;;;;;-3.51;100.00;96989.84;5054008;28;20455;-75
2023/03/01 07:04:45;;;;;;;21.80;15.60;;;;;;;-3.30;100.00;97007.47;5070679;28;20528;-75
2023/03/01 07:07:12;;;;;;;23.83;15.00;;;;;;;-3.28;100.00;97011.41;5076781;28;20535;-74
2023/03/01 07:09:39;;;;;;;29.20;16.40;;;;;;;-3.36;100.00;96998.00;5063624;28;20460;-75
2023/03/01 07:12:06;;;;;;;25.80;16.60;;;;;;;-3.15;100.00;97025.16;5078343;28;20443;-75
2023/03/01 07:14:33;;;;;;;25.23;15.60;;;;;;;-3.09;100.00;97022.44;5078436;28;20423;-76
2023/03/01 07:17:00;;;;;;;28.37;14.10;;;;;;;-3.33;100.00;96961.38;5078404;28;20864;-75
2023/03/01 07:19:26;;;;;;;17.27;14.57;;;;;;;-3.27;100.00;96973.41;5076969;28;20479;-75
2023/03/01 07:21:53;;;;;;;30.63;17.33;;;;;;;-2.94;100.00;97006.50;5090593;28;20451;-75
2023/03/01 07:24:20;;;;;;;20.87;14.70;;;;;;;-2.92;100.00;96985.63;5073744;28;20479;-76
2023/03/01 07:26:53;;;;;;;21.83;16.00;;;;;;;-2.91;100.00;96971.66;5071910;28;20439;-75
2023/03/01 07:29:20;;;;;;;23.23;15.60;;;;;;;-2.80;100.00;96970.88;5057102;28;20444;-75
2023/03/01 07:31:46;;;;;;;24.53;16.17;;;;;;;-2.65;100.00;96971.22;5072867;28;20543;-75
2023/03/01 07:34:13;;;;;;;23.90;17.67;;;;;;;-2.43;100.00;96986.94;5080290;28;20988;-75
2023/03/01 07:36:42;;;;;;;24.00;17.93;;;;;;;-2.54;100.00;96970.41;5080295;28;20442;-75
2023/03/01 07:39:10;;;;;;;21.67;14.53;;;;;;;-2.46;100.00;96966.69;5088661;28;20432;-74
2023/03/01 07:41:37;;;;;;;22.80;16.27;;;;;;;-2.18;100.00;96992.66;5078107;28;20496;-74
2023/03/01 07:44:04;;;;;;;27.33;17.27;;;;;;;-2.05;100.00;96991.63;5078144;28;20430;-75
2023/03/01 07:46:30;;;;;;;25.20;16.23;;;;;;;-2.13;100.00;96974.66;5076730;28;20436;-75
2023/03/01 07:48:58;;;;;;;23.03;16.20;;;;;;;-1.95;100.00;96993.63;5062422;28;20427;-75
2023/03/01 07:51:24;;;;;;;22.37;16.50;;;;;;;-2.24;100.00;96954.72;5076878;28;20456;-75
2023/03/01 07:53:51;;;;;;;23.60;14.77;;;;;;;-2.16;100.00;96954.34;5066327;28;20532;-75
2023/03/01 07:56:18;;;;;;;27.60;18.23;;;;;;;-1.86;100.00;96959.34;5091317;28;20431;-75
2023/03/01 07:58:45;;;;;;;26.00;15.77;;;;;;;-1.92;100.00;96964.66;5086236;28;20948;-75
2023/03/01 08:01:16;;;;;;;22.23;16.73;;;;;;;-1.85;100.00;96978.28;5058711;28;20472;-74
2023/03/01 08:03:43;;;;;;;21.10;16.27;;;;;;;-2.08;100.00;96933.28;5079583;28;20435;-74
2023/03/01 08:06:11;;;;;;;23.30;15.10;;;;;;;-1.74;100.00;96984.41;5080040;28;20916;-74
2023/03/01 08:08:38;;;;;;;23.60;17.30;;;;;;;-1.82;100.00;96981.19;5068361;28;20448;-74
2023/03/01 08:11:06;;;;;;;22.50;16.33;;;;;;;-1.41;100.00;96973.34;5059888;28;20460;-74
2023/03/01 08:13:33;;;;;;;25.30;15.97;;;;;;;-1.84;100.00;96948.75;5064468;28;20437;-74
2023/03/01 08:16:06;;;;;;;18.47;13.27;;;;;;;-1.58;100.00;96973.34;5062319;28;20447;-74
2023/03/01 08:18:33;;;;;;;21.80;15.57;;;;;;;-1.58;100.00;96948.19;5076978;28;20512;-73
2023/03/01 08:21:07;;;;;;;21.83;16.17;;;;;;;-1.56;100.00;96940.19;5061094;28;20518;-74
2023/03/01 08:23:34;;;;;;;21.83;16.70;;;;;;;-1.63;100.00;96929.94;5074676;28;20829;-74
2023/03/01 08:26:16;;;;;;;21.83;16.13;;;;;;;-1.25;100.00;96962.22;5090073;28;20523;-74
2023/03/01 08:28:43;;;;;;;23.07;16.10;;;;;;;-1.43;100.00;96933.91;5073161;28;20469;-74
2023/03/01 08:31:15;;;;;;;27.60;17.43;;;;;;;-1.22;100.00;96952.13;5073191;28;20886;-74
2023/03/01 08:33:42;;;;;;;27.87;16.17;;;;;;;-1.17;100.00;96938.47;5074217;28;20432;-74
2023/03/01 08:36:08;;;;;;;23.07;15.60;;;;;;;-1.12;100.00;96929.97;5073165;28;20464;-74
2023/03/01 08:38:35;;;;;;;24.83;17.40;;;;;;;-0.94;100.00;96966.06;5056538;28;20480;-74
2023/03/01 08:41:03;;;;;;;22.20;15.80;;;;;;;-1.05;100.00;96946.97;5074256;28;20554;-74
2023/03/01 08:43:30;;;;;;;29.33;16.77;;;;;;;-0.77;100.00;96959.06;5072911;28;20433;-74
2023/03/01 08:45:57;;;;;;;23.23;17.70;;;;;;;-0.89;100.00;96968.75;5078102;28;20433;-74
2023/03/01 08:48:23;;;;;;;28.27;17.10;;;;;;;-0.65;100.00;96964.94;5073605;28;20443;-74
2023/03/01 08:50:50;;;;;;;29.23;17.53;;;;;;;-0.64;100.00;96963.94;5072811;28;20490;-74
2023/03/01 08:53:17;;;;;;;22.20;15.50;;;;;;;-0.90;100.00;96882.31;5074026;28;20435;-74
2023/03/01 08:55:43;;;;;;;21.90;16.30;;;;;;;-0.41;100.00;96962.91;5072771;28;20983;-74
2023/03/01 08:58:10;;;;;;;19.93;16.00;;;;;;;-0.21;100.00;96949.41;5064178;28;20439;-74
2023/03/01 09:00:37;;;;;;;23.63;17.73;;;;;;;-0.23;100.00;96948.88;5080998;28;20495;-74
2023/03/01 09:03:04;;;;;;;21.70;17.67;;;;;;;-0.21;100.00;96935.63;5056134;28;20996;-74
2023/03/01 09:05:32;;;;;;;22.43;15.77;;;;;;;0.13;100.00;96955.25;5073057;28;20483;-74
2023/03/01 09:07:59;;;;;;;23.77;15.87;;;;;;;0.16;100.00;96961.78;5053775;28;20434;-74
2023/03/01 09:10:26;;;;;;;20.27;14.30;;;;;;;-0.19;100.00;96908.38;5069112;28;20436;-74
2023/03/01 09:12:52;;;;;;;29.10;18.07;;;;;;;0.03;100.00;96928.38;5068945;28;20535;-74
2023/03/01 09:15:19;;;;;;;22.60;16.40;;;;;;;0.09;100.00;96919.59;5064274;28;20459;-74
2023/03/01 09:17:46;;;;;;;22.83;16.60;;;;;;;0.20;100.00;96942.06;5073541;28;20523;-75
2023/03/01 09:20:13;;;;;;;18.60;15.73;;;;;;;0.11;100.00;96896.72;5072022;28;20823;-74
2023/03/01 09:22:40;;;;;;;22.90;16.70;;;;;;;0.54;100.00;96937.47;5072043;28;20886;-74
2023/03/01 09:25:07;;;;;;;25.70;16.13;;;;;;;0.35;100.00;96926.63;5055627;28;20803;-74
2023/03/01 09:27:34;;;;;;;26.03;15.73;;;;;;;0.48;100.00;96941.03;5072009;28;20527;-74
2023/03/01 09:30:00;;;;;;;20.70;15.50;;;;;;;0.54;100.00;96925.25;5071575;28;20467;-75
2023/03/01 09:32:30;;;;;;;22.53;15.40;;;;;;;0.40;100.00;96918.88;5073153;28;20482;-74
2023/03/01 09:35:06;;;;;;;19.30;15.03;;;;;;;0.46;100.00;96911.91;5088803;28;20439;-74
2023/03/01 09:37:34;;;;;;;22.57;13.80;;;;;;;0.77;100.00;96944.16;5073228;28;20416;-74
2023/03/01 09:40:04;;;;;;;21.13;14.53;;;;;;;0.79;100.00;96935.06;5055141;28;20522;-74
2023/03/01 09:42:33;;;;;;;20.70;14.83;;;;;;;0.85;100.00;96917.69;5087587;28;20456;-74
2023/03/01 09:45:04;;;;;;;16.07;12.73;;;;;;;1.17;100.00;96928.06;5075357;28;20442;-75
2023/03/01 09:47:35;;;;;;;20.33;15.13;;;;;;;0.93;100.00;96914.59;5093568;28;20927;-74
2023/03/01 09:50:14;;;;;;;18.00;14.87;;;;;;;1.23;100.00;96939.31;5092122;28;20542;-74
2023/03/01 09:53:11;;;;;;;19.77;14.90;;;;;;;1.45;100.00;96942.53;5091687;28;20451;-75
2023/03/01 09:55:38;;;;;;;21.60;15.70;;;;;;;1.62;100.00;96935.34;5083766;28;20450;-74
2023/03/01 09:58:23;;;;;;;20.53;16.20;;;;;;;1.70;100.00;96936.69;5057061;28;20508;-74
2023/03/01 10:00:50;;;;;;;15.70;13.10;;;;;;;1.68;100.00;96939.53;5071181;28;20480;-75
2023/03/01 10:03:28;;;;;;;20.00;15.70;;;;;;;1.47;100.00;96920.44;5071344;28;20493;-74
2023/03/01 10:06:10;;;;;;;23.00;15.17;;;;;;;1.42;100.00;96935.22;5071380;28;20437;-74
2023/03/01 10:09:02;;;;;;;20.57;14.30;;;;;;;1.52;100.00;96926.69;5088255;28;20436;-74
2023/03/01 10:11:32;;;;;;;21.13;14.00;;;;;;;1.55;100.00;96902.75;5071169;28;20546;-74
2023/03/01 10:14:05;;;;;;;19.87;13.90;;;;;;;1.64;100.00;96915.03;5072758;28;20425;-74
2023/03/01 10:16:42;;;;;;;21.63;15.73;;;;;;;1.82;100.00;96929.44;5071467;28;20533;-74
2023/03/01 10:19:15;;;;;;;20.00;14.83;;;;;;;1.84;100.00;96919.53;5071243;28;20450;-75
2023/03/01 10:21:45;;;;;;;19.90;14.50;;;;;;;1.99;100.00;96921.41;5070995;28;20488;-74
2023/03/01 10:24:14;;;;;;;22.60;17.27;;;;;;;1.91;100.00;96921.91;5087848;28;20427;-75
2023/03/01 10:26:53;;;;;;;20.67;16.20;;;;;;;1.99;100.00;96927.41;5072593;28;21026;-74
2023/03/01 10:29:27;;;;;;;22.87;15.10;;;;;;;1.85;100.00;96909.88;5087898;28;20482;-74
2023/03/01 10:31:54;;;;;;;21.77;15.10;;;;;;;2.04;100.00;96909.19;5087790;28;20460;-75
2023/03/01 10:34:34;;;;;;;20.57;16.30;;;;;;;2.21;99.46;96919.38;5080801;28;20481;-75
2023/03/01 10:37:10;;;;;;;17.57;14.00;;;;;;;2.16;100.00;96908.16;5091294;28;20493;-75
2023/03/01 10:39:53;;;;;;;19.43;15.30;;;;;;;2.43;99.09;96911.34;5092138;28;20916;-74
2023/03/01 10:42:26;;;;;;;22.70;16.10;;;;;;;2.51;97.96;96912.66;5063133;28;20998;-74
2023/03/01 10:44:53;;;;;;;24.77;17.90;;;;;;;2.28;98.34;96877.41;5072049;28;20428;-74
2023/03/01 10:47:23;;;;;;;23.10;16.97;;;;;;;2.33;98.83;96890.47;5072033;28;20944;-74
2023/03/01 10:50:05;;;;;;;20.70;12.50;;;;;;;2.51;98.70;96883.94;5055654;28;20498;-74
2023/03/01 10:52:37;;;;;;;19.53;15.93;;;;;;;2.49;98.71;96893.84;5075792;28;20550;-74
2023/03/01 10:55:26;;;;;;;24.70;15.90;;;;;;;2.50;99.36;96888.38;5067321;28;20441;-74
2023/03/01 10:58:19;;;;;;;21.43;15.57;;;;;;;2.56;98.30;96881.34;5083572;28;20473;-74
2023/03/01 11:00:52;;;;;;;19.63;15.03;;;;;;;2.59;97.71;96888.66;5077531;28;20479;-75
2023/03/01 11:03:28;;;;;;;20.80;16.00;;;;;;;2.65;98.79;96887.59;5090914;28;20449;-75
2023/03/01 11:06:07;;;;;;;21.17;13.53;;;;;;;2.71;98.04;96883.19;5087983;28;20949;-75
2023/03/01 11:08:44;;;;;;;18.67;14.37;;;;;;;2.69;98.97;96867.78;5070669;28;20520;-75
2023/03/01 11:11:28;;;;;;;23.27;15.40;;;;;;;2.92;98.70;96866.44;5071711;28;20616;-75
2023/03/01 11:14:03;;;;;;;19.70;15.23;;;;;;;2.66;97.30;96847.41;5087261;28;20475;-75
2023/03/01 11:16:44;;;;;;;22.10;14.80;;;;;;;2.74;98.48;96839.03;5055624;28;20440;-75
2023/03/01 11:19:11;;;;;;;17.73;14.37;;;;;;;2.72;98.75;96853.41;5051996;28;20447;-75
2023/03/01 11:21:55;;;;;;;25.00;16.97;;;;;;;2.89;99.86;96849.47;5075813;28;20502;-75
2023/03/01 11:24:29;;;;;;;23.07;17.50;;;;;;;3.05;100.00;96818.09;5090624;28;20431;-75